Time;durP1;ratioP1;P1;durP2;ratioP2;P2;SDS_P1;SDS_P2;PMS_P1;PMS_P2;Temp;Humidity;BMP_temperature;BMP_pressure;BME280_temperature;BME280_humidity;BME280_pressure;Samples;Min_cycle;Max_cycle;Signal;HPM_P1;HPM_P2
2022/08/25 00:01:41;;;;;;;2.85;2.17;;;23.50;57.00;;;;;;5031919;28;20029;-60
2022/08/25 00:04:10;;;;;;;2.45;2.17;;;23.50;57.00;;;;;;5043515;28;20052;-59
2022/08/25 00:06:37;;;;;;;3.45;2.38;;;23.50;57.10;;;;;;5047668;28;20392;-60
2022/08/25 00:09:04;;;;;;;2.38;2.03;;;23.50;57.00;;;;;;5048512;28;20027;-59
2022/08/25 00:11:31;;;;;;;2.63;2.05;;;23.50;57.10;;;;;;5051047;28;20506;-60
2022/08/25 00:14:00;;;;;;;2.60;2.35;;;23.40;57.10;;;;;;5047248;28;20021;-62
2022/08/25 00:16:26;;;;;;;3.42;2.53;;;23.40;57.30;;;;;;5046281;28;20531;-60
2022/08/25 00:18:55;;;;;;;3.30;2.50;;;23.40;57.40;;;;;;5047392;28;20031;-61
2022/08/25 00:21:21;;;;;;;3.53;2.80;;;23.40;57.40;;;;;;5048851;28;21509;-62
2022/08/25 00:23:48;;;;;;;4.00;3.30;;;23.40;57.60;;;;;;5047915;28;20469;-62
2022/08/25 00:26:14;;;;;;;3.47;2.67;;;23.40;57.90;;;;;;5053858;28;20051;-60
2022/08/25 00:28:41;;;;;;;5.15;2.90;;;23.40;58.30;;;;;;5057755;28;20017;-60
2022/08/25 00:31:13;;;;;;;3.63;2.83;;;23.40;58.40;;;;;;5036089;28;20027;-59
2022/08/25 00:33:39;;;;;;;3.13;2.45;;;23.40;58.50;;;;;;5048604;28;20166;-59
2022/08/25 00:36:05;;;;;;;3.63;2.83;;;23.40;58.50;;;;;;5053404;28;20032;-60
2022/08/25 00:38:31;;;;;;;3.33;2.38;;;23.40;58.40;;;;;;5052122;28;20506;-59
2022/08/25 00:41:15;;;;;;;3.28;2.50;;;23.40;59.20;;;;;;5050052;28;20036;-58
2022/08/25 00:43:41;;;;;;;4.50;2.78;;;23.40;58.70;;;;;;5052260;28;20029;-60
2022/08/25 00:46:14;;;;;;;4.78;2.75;;;23.30;58.40;;;;;;5051219;28;20109;-59
2022/08/25 00:48:42;;;;;;;3.47;2.67;;;23.30;58.40;;;;;;5043779;28;20048;-62
2022/08/25 00:51:13;;;;;;;3.30;3.00;;;23.30;58.40;;;;;;5049214;28;20021;-61
2022/08/25 00:53:40;;;;;;;6.30;3.58;;;23.30;58.50;;;;;;5049554;28;20036;-62
2022/08/25 00:56:06;;;;;;;4.15;3.00;;;23.20;58.50;;;;;;5047360;28;20029;-61
2022/08/25 00:58:34;;;;;;;4.65;3.10;;;23.30;58.60;;;;;;5054229;28;20033;-61
2022/08/25 01:01:00;;;;;;;3.10;2.80;;;23.20;58.60;;;;;;5050307;28;20099;-61
2022/08/25 01:03:28;;;;;;;4.10;3.00;;;23.20;58.60;;;;;;5051221;28;20535;-62
2022/08/25 01:05:54;;;;;;;4.40;2.85;;;23.20;58.50;;;;;;5051836;28;20511;-61
2022/08/25 01:08:26;;;;;;;2.72;2.53;;;23.20;58.40;;;;;;5044149;28;20532;-61
2022/08/25 01:10:53;;;;;;;2.97;2.67;;;23.20;58.50;;;;;;5053182;28;20431;-61
2022/08/25 01:13:53;;;;;;;3.38;2.88;;;23.20;58.50;;;;;;5050506;28;20101;-62
2022/08/25 01:16:19;;;;;;;5.53;2.95;;;23.20;58.50;;;;;;5053325;28;20037;-60
2022/08/25 01:18:55;;;;;;;5.20;3.47;;;23.10;58.50;;;;;;5044715;28;20032;-61
2022/08/25 01:21:23;;;;;;;4.38;2.80;;;23.20;58.50;;;;;;5052999;28;20143;-62
2022/08/25 01:23:51;;;;;;;4.28;3.22;;;23.20;58.50;;;;;;5050164;28;20029;-61
2022/08/25 01:26:20;;;;;;;3.83;3.10;;;23.10;58.50;;;;;;5047793;28;20392;-62
2022/08/25 01:31:34;;;;;;;4.07;3.13;;;23.10;58.80;;;;;;5038950;28;20071;-61
2022/08/25 01:34:00;;;;;;;5.10;2.90;;;23.10;58.70;;;;;;5053683;28;20053;-62
2022/08/25 01:36:27;;;;;;;5.00;3.10;;;23.10;58.70;;;;;;5048348;28;20047;-60
2022/08/25 01:38:53;;;;;;;4.45;3.28;;;23.10;59.40;;;;;;5049821;28;20023;-61
2022/08/25 01:41:28;;;;;;;3.55;3.10;;;23.10;58.90;;;;;;5049072;28;20107;-60
2022/08/25 01:43:54;;;;;;;4.35;3.13;;;23.00;59.00;;;;;;5050525;28;20075;-61
2022/08/25 01:46:20;;;;;;;3.90;3.15;;;23.10;59.00;;;;;;5052523;28;20036;-61
2022/08/25 01:48:45;;;;;;;3.58;3.03;;;23.00;58.90;;;;;;5030022;28;20477;-61
2022/08/25 01:51:14;;;;;;;4.82;3.70;;;23.00;59.00;;;;;;5051247;28;20123;-61
2022/08/25 01:53:42;;;;;;;6.03;3.42;;;23.00;59.00;;;;;;5057158;28;20037;-61
2022/08/25 01:56:14;;;;;;;4.30;3.28;;;23.00;59.00;;;;;;5053207;28;20021;-60
2022/08/25 01:58:44;;;;;;;3.90;3.20;;;23.00;59.10;;;;;;5055001;28;20384;-61
2022/08/25 02:01:15;;;;;;;3.95;3.28;;;22.90;59.10;;;;;;5058729;28;20031;-59
2022/08/25 02:03:45;;;;;;;4.93;3.28;;;23.00;59.10;;;;;;5048431;28;20037;-58
2022/08/25 02:06:12;;;;;;;;;;;22.90;59.00;;;;;;5053237;28;20041;-58
2022/08/25 02:08:39;;;;;;;4.10;3.03;;;22.90;59.30;;;;;;5052271;28;19909;-58
2022/08/25 02:11:05;;;;;;;4.68;3.22;;;22.90;59.20;;;;;;5052774;28;20104;-57
2022/08/25 02:13:31;;;;;;;4.32;3.47;;;22.90;59.50;;;;;;5051261;28;20025;-59
2022/08/25 02:15:59;;;;;;;3.90;3.10;;;22.90;59.50;;;;;;5046528;28;20028;-59
2022/08/25 02:18:25;;;;;;;4.05;3.20;;;22.90;59.50;;;;;;5050403;28;20146;-59
2022/08/25 02:20:51;;;;;;;3.33;2.78;;;22.90;59.60;;;;;;5050017;28;20116;-59
2022/08/25 02:23:17;;;;;;;4.07;3.28;;;22.90;59.60;;;;;;5052045;28;20025;-58
2022/08/25 02:25:43;;;;;;;3.85;3.28;;;22.90;59.60;;;;;;5052132;28;20036;-58
2022/08/25 02:28:09;;;;;;;4.03;3.20;;;22.90;59.60;;;;;;5052361;28;20029;-58
2022/08/25 02:30:36;;;;;;;3.90;3.38;;;22.90;59.60;;;;;;5052573;28;20029;-58
2022/08/25 02:33:02;;;;;;;4.85;3.65;;;22.90;59.60;;;;;;5053033;28;20031;-58
2022/08/25 02:35:28;;;;;;;5.30;3.58;;;22.80;59.50;;;;;;5047521;28;20119;-58
2022/08/25 02:37:54;;;;;;;5.50;3.97;;;22.80;59.50;;;;;;5035088;28;20094;-57
2022/08/25 02:40:20;;;;;;;3.78;3.22;;;22.80;59.60;;;;;;5051288;28;20077;-58
2022/08/25 02:42:50;;;;;;;5.28;4.00;;;22.80;59.50;;;;;;5051216;28;20036;-58
2022/08/25 02:45:17;;;;;;;3.47;3.17;;;22.80;59.40;;;;;;5052307;28;20370;-62
2022/08/25 02:47:44;;;;;;;4.53;3.30;;;22.80;59.20;;;;;;5028676;28;20115;-59
2022/08/25 02:50:10;;;;;;;3.97;3.15;;;22.80;59.40;;;;;;5050879;28;20033;-59
2022/08/25 02:52:36;;;;;;;4.40;3.42;;;22.80;59.40;;;;;;5049980;28;20029;-58
2022/08/25 02:55:05;;;;;;;4.65;3.40;;;22.80;59.30;;;;;;5056641;28;20078;-59
2022/08/25 02:57:31;;;;;;;3.65;3.28;;;22.80;59.50;;;;;;5054029;28;20435;-58
2022/08/25 02:59:57;;;;;;;5.55;4.05;;;22.80;59.40;;;;;;5050050;28;20078;-58
2022/08/25 03:02:24;;;;;;;5.82;4.13;;;22.80;59.50;;;;;;5050553;28;20060;-60
2022/08/25 03:04:51;;;;;;;4.50;3.80;;;22.70;59.30;;;;;;5050359;28;20032;-57
2022/08/25 03:07:18;;;;;;;4.25;3.08;;;22.70;59.30;;;;;;5050452;28;20040;-57
2022/08/25 03:09:44;;;;;;;3.95;3.20;;;22.70;59.30;;;;;;5049753;28;20155;-58
2022/08/25 03:12:11;;;;;;;3.80;3.33;;;22.70;59.20;;;;;;5051698;28;20116;-58
2022/08/25 03:14:38;;;;;;;3.88;3.15;;;22.70;59.30;;;;;;5032030;28;20576;-60
2022/08/25 03:17:04;;;;;;;3.85;3.17;;;22.70;59.30;;;;;;5051232;28;20029;-58
2022/08/25 03:19:30;;;;;;;4.03;3.60;;;22.70;59.50;;;;;;5051806;28;20497;-58
2022/08/25 03:21:56;;;;;;;4.32;3.30;;;22.70;59.50;;;;;;5048038;28;20056;-58
2022/08/25 03:24:23;;;;;;;4.22;3.47;;;22.70;59.50;;;;;;5046948;28;20033;-59
2022/08/25 03:26:54;;;;;;;4.32;3.63;;;22.80;59.50;;;;;;5049990;28;20036;-57
2022/08/25 03:29:32;;;;;;;3.65;3.15;;;22.80;59.60;;;;;;5051839;28;20027;-61
2022/08/25 03:31:59;;;;;;;4.18;3.42;;;22.80;59.60;;;;;;5043100;28;20045;-59
2022/08/25 03:34:26;;;;;;;5.13;4.10;;;22.80;59.70;;;;;;5049844;28;20041;-57
2022/08/25 03:36:53;;;;;;;4.88;3.60;;;22.90;59.80;;;;;;5047605;28;20501;-58
2022/08/25 03:39:21;;;;;;;3.90;3.30;;;22.90;59.60;;;;;;5049363;28;20099;-59
2022/08/25 03:41:47;;;;;;;5.60;3.50;;;22.90;59.40;;;;;;5050771;28;20382;-58
2022/08/25 03:44:15;;;;;;;4.00;3.35;;;22.90;59.50;;;;;;5046971;28;20028;-58
2022/08/25 03:46:43;;;;;;;5.38;3.67;;;23.00;59.50;;;;;;5051454;28;20048;-58
2022/08/25 03:49:15;;;;;;;4.80;3.55;;;23.00;59.50;;;;;;5049047;28;20197;-58
2022/08/25 03:51:47;;;;;;;5.35;3.45;;;23.00;59.70;;;;;;5049701;28;20051;-58
2022/08/25 03:54:19;;;;;;;4.50;3.72;;;23.10;59.80;;;;;;5048795;28;20033;-59
2022/08/25 03:56:45;;;;;;;4.90;3.90;;;23.10;59.80;;;;;;5057324;28;20052;-58
2022/08/25 03:59:11;;;;;;;4.53;3.80;;;23.10;59.90;;;;;;5055129;28;20108;-58
2022/08/25 04:01:38;;;;;;;6.57;3.88;;;23.10;60.00;;;;;;5054363;28;20034;-58
2022/08/25 04:04:05;;;;;;;5.50;3.90;;;23.10;60.20;;;;;;5048849;28;20108;-58
2022/08/25 04:06:31;;;;;;;4.70;3.67;;;23.10;60.10;;;;;;5053890;28;20123;-58
2022/08/25 04:08:57;;;;;;;5.43;3.58;;;23.10;60.10;;;;;;5053061;28;20025;-57
2022/08/25 04:11:24;;;;;;;4.25;3.78;;;23.10;60.20;;;;;;5052558;28;20090;-57
2022/08/25 04:13:51;;;;;;;5.18;3.90;;;23.20;60.00;;;;;;5052334;28;20536;-58
2022/08/25 04:16:20;;;;;;;3.85;3.22;;;23.20;60.20;;;;;;5053749;28;20033;-57
2022/08/25 04:18:48;;;;;;;6.03;3.65;;;23.20;60.30;;;;;;5055231;28;20025;-58
2022/08/25 04:21:14;;;;;;;4.68;3.70;;;23.30;60.40;;;;;;5052669;28;20028;-59
2022/08/25 04:23:42;;;;;;;3.83;3.20;;;23.30;60.30;;;;;;5054119;28;20051;-58
2022/08/25 04:26:20;;;;;;;4.75;3.70;;;23.40;60.40;;;;;;5055240;28;20484;-58
2022/08/25 04:28:46;;;;;;;4.40;3.60;;;23.50;60.30;;;;;;5052809;28;20024;-58
2022/08/25 04:31:13;;;;;;;4.50;3.67;;;23.50;60.40;;;;;;5048360;28;20132;-58
2022/08/25 04:33:40;;;;;;;5.55;3.58;;;23.60;60.20;;;;;;5054589;28;20498;-58
2022/08/25 04:36:10;;;;;;;5.22;4.15;;;23.60;60.20;;;;;;5054600;28;20100;-58
2022/08/25 04:38:36;;;;;;;4.55;3.55;;;23.60;60.30;;;;;;5054394;28;20085;-58
2022/08/25 04:41:04;;;;;;;4.90;3.53;;;23.60;60.40;;;;;;5052062;28;20017;-58
2022/08/25 04:43:32;;;;;;;3.35;2.92;;;23.70;60.10;;;;;;5053365;28;20095;-58
2022/08/25 04:45:58;;;;;;;4.30;3.50;;;23.70;60.20;;;;;;5048668;28;20025;-58
2022/08/25 04:48:25;;;;;;;5.25;4.00;;;23.80;60.20;;;;;;5052517;28;20033;-58
2022/08/25 04:50:51;;;;;;;4.10;3.35;;;23.90;60.10;;;;;;5054454;28;20052;-59
2022/08/25 04:53:17;;;;;;;3.70;3.10;;;23.90;59.90;;;;;;5051617;28;20037;-59
2022/08/25 04:55:45;;;;;;;5.15;3.65;;;24.00;59.60;;;;;;5045819;28;20086;-58
2022/08/25 04:58:12;;;;;;;4.05;3.42;;;24.00;59.50;;;;;;5050926;28;20488;-58
2022/08/25 05:00:39;;;;;;;4.32;3.60;;;23.90;59.40;;;;;;5044477;28;20031;-60
2022/08/25 05:03:04;;;;;;;4.60;3.78;;;23.90;59.40;;;;;;5047878;28;20068;-64
2022/08/25 05:05:31;;;;;;;4.85;3.38;;;23.90;59.40;;;;;;5051714;28;20025;-58
2022/08/25 05:07:57;;;;;;;3.95;3.35;;;23.90;59.70;;;;;;5054033;28;20029;-58
2022/08/25 05:10:23;;;;;;;5.35;3.90;;;23.90;59.70;;;;;;5049194;28;20084;-59
2022/08/25 05:12:49;;;;;;;4.57;3.50;;;23.90;59.60;;;;;;5050477;28;20055;-58
2022/08/25 05:17:59;;;;;;;4.30;3.47;;;24.10;59.70;;;;;;5049880;28;20106;-59
2022/08/25 05:20:25;;;;;;;4.65;3.50;;;24.20;59.60;;;;;;5050127;28;20037;-58
2022/08/25 05:22:51;;;;;;;4.20;3.60;;;24.30;59.50;;;;;;5051076;28;20443;-57
2022/08/25 05:25:17;;;;;;;3.97;3.33;;;24.40;59.20;;;;;;5042578;28;20052;-58
2022/08/25 05:27:43;;;;;;;4.88;3.63;;;24.50;59.10;;;;;;5047936;28;20056;-58
2022/08/25 05:30:10;;;;;;;5.10;3.67;;;24.60;59.10;;;;;;5048751;28;20020;-58
2022/08/25 05:32:36;;;;;;;4.60;3.50;;;24.60;59.10;;;;;;5042960;28;20488;-59
2022/08/25 05:35:03;;;;;;;4.60;4.05;;;24.70;58.90;;;;;;5049087;28;20045;-57
2022/08/25 05:37:29;;;;;;;5.10;3.67;;;24.80;58.60;;;;;;5046129;28;20078;-58
2022/08/25 05:39:54;;;;;;;5.35;3.95;;;24.90;58.40;;;;;;5045657;28;20041;-59
2022/08/25 05:42:21;;;;;;;4.45;3.38;;;25.00;58.30;;;;;;5036795;28;20048;-60
2022/08/25 05:44:47;;;;;;;5.30;3.35;;;25.00;58.30;;;;;;5045666;28;20061;-59
2022/08/25 05:47:12;;;;;;;4.68;3.55;;;25.00;58.20;;;;;;5041093;28;20064;-59
2022/08/25 05:49:38;;;;;;;4.78;3.58;;;25.10;58.10;;;;;;5040050;28;20040;-60
2022/08/25 05:52:04;;;;;;;5.00;3.35;;;25.10;58.20;;;;;;5037638;28;20029;-58
2022/08/25 05:54:30;;;;;;;4.80;3.80;;;25.20;58.20;;;;;;5040247;28;20072;-60
2022/08/25 05:56:57;;;;;;;4.88;3.53;;;25.20;58.20;;;;;;5040345;28;20064;-61
2022/08/25 05:59:23;;;;;;;5.80;3.53;;;25.20;58.30;;;;;;5037330;28;20040;-60
2022/08/25 06:04:32;;;;;;;3.80;3.50;;;25.30;58.30;;;;;;5033087;28;20078;-58
2022/08/25 06:06:58;;;;;;;5.53;3.60;;;25.40;58.30;;;;;;5023203;28;20025;-58
2022/08/25 06:09:25;;;;;;;4.40;3.10;;;25.40;58.10;;;;;;5044547;28;20029;-59
2022/08/25 06:11:51;;;;;;;4.57;3.55;;;25.40;58.10;;;;;;5041924;28;20495;-59
2022/08/25 06:14:17;;;;;;;4.65;3.70;;;25.40;58.00;;;;;;5040963;28;20544;-59
2022/08/25 06:16:42;;;;;;;4.78;3.72;;;25.40;58.00;;;;;;5043915;28;20029;-59
2022/08/25 06:19:09;;;;;;;4.63;3.50;;;25.50;57.90;;;;;;5036549;28;20060;-59
2022/08/25 06:21:37;;;;;;;4.10;3.63;;;25.50;58.10;;;;;;5041510;28;20082;-58
2022/08/25 06:24:04;;;;;;;3.97;3.28;;;25.50;57.90;;;;;;5035431;28;20110;-59
2022/08/25 06:26:30;;;;;;;4.18;3.38;;;25.50;57.80;;;;;;5039743;28;20676;-60
2022/08/25 06:28:56;;;;;;;4.47;3.53;;;25.60;57.80;;;;;;5027138;28;20093;-61
2022/08/25 06:31:22;;;;;;;4.78;3.53;;;25.60;57.80;;;;;;5030393;28;20040;-61
2022/08/25 06:33:49;;;;;;;4.40;3.35;;;25.60;57.90;;;;;;5032579;28;20497;-60
2022/08/25 06:36:14;;;;;;;4.85;3.50;;;25.70;58.50;;;;;;5014870;28;20052;-61
2022/08/25 06:38:40;;;;;;;4.75;3.30;;;25.70;57.80;;;;;;5030352;28;20028;-61
2022/08/25 06:41:09;;;;;;;3.72;3.33;;;25.80;57.80;;;;;;5034176;28;20049;-58
2022/08/25 06:43:35;;;;;;;4.80;3.30;;;25.80;57.70;;;;;;5032260;28;20025;-59
2022/08/25 06:46:16;;;;;;;4.47;3.28;;;25.80;57.90;;;;;;5027783;28;21135;-60
2022/08/25 06:48:42;;;;;;;3.38;2.75;;;25.90;57.60;;;;;;5031959;28;20159;-62
2022/08/25 06:51:11;;;;;;;4.75;3.38;;;25.90;57.80;;;;;;5021603;28;20136;-58
2022/08/25 06:53:37;;;;;;;3.92;3.30;;;25.90;57.60;;;;;;5025858;28;20071;-59
2022/08/25 06:56:04;;;;;;;5.57;3.50;;;25.90;57.60;;;;;;5020278;28;20834;-63
2022/08/25 06:58:30;;;;;;;4.68;3.70;;;26.00;57.50;;;;;;5023226;28;20029;-58
2022/08/25 07:00:56;;;;;;;4.18;3.20;;;26.00;57.60;;;;;;5021167;28;20044;-61
2022/08/25 07:03:22;;;;;;;4.22;3.58;;;26.00;57.60;;;;;;5016945;28;20025;-60
2022/08/25 07:05:54;;;;;;;5.35;3.30;;;26.00;57.60;;;;;;5025606;28;20267;-59
2022/08/25 07:08:20;;;;;;;4.63;3.13;;;26.10;57.60;;;;;;5024331;28;20913;-60
2022/08/25 07:10:46;;;;;;;3.92;3.00;;;26.10;57.60;;;;;;5031674;28;20032;-60
2022/08/25 07:13:12;;;;;;;3.80;3.28;;;26.10;57.50;;;;;;5023514;28;20256;-60
2022/08/25 07:15:39;;;;;;;4.10;3.47;;;26.10;57.60;;;;;;5030491;28;20622;-59
2022/08/25 07:18:06;;;;;;;4.43;3.42;;;26.10;57.60;;;;;;5033544;28;20116;-61
2022/08/25 07:20:34;;;;;;;4.30;3.08;;;26.10;57.50;;;;;;5033318;28;20041;-58
2022/08/25 07:23:00;;;;;;;4.30;3.40;;;26.20;57.30;;;;;;5035073;28;20035;-61
2022/08/25 07:25:26;;;;;;;4.28;3.17;;;26.20;57.40;;;;;;5033824;28;20033;-62
2022/08/25 07:27:52;;;;;;;4.30;3.28;;;26.20;57.40;;;;;;5036565;28;20370;-59
2022/08/25 07:30:18;;;;;;;3.22;2.90;;;26.20;57.30;;;;;;5027852;28;21371;-61
2022/08/25 07:32:44;;;;;;;4.55;3.47;;;26.20;57.20;;;;;;5021579;28;20396;-60
2022/08/25 07:35:14;;;;;;;3.63;2.95;;;26.20;57.20;;;;;;5027130;28;20037;-62
2022/08/25 07:37:44;;;;;;;3.92;3.15;;;26.20;57.10;;;;;;5032684;28;20039;-59
2022/08/25 07:40:16;;;;;;;3.75;2.90;;;26.20;57.10;;;;;;5030550;28;20098;-62
2022/08/25 07:42:42;;;;;;;3.08;2.53;;;26.30;57.30;;;;;;5033167;28;20044;-63
2022/08/25 07:45:09;;;;;;;4.10;2.92;;;26.30;57.40;;;;;;5029045;28;20033;-62
2022/08/25 07:47:37;;;;;;;4.05;3.10;;;26.30;57.40;;;;;;5026989;28;20033;-61
2022/08/25 07:50:04;;;;;;;4.90;3.38;;;26.30;57.30;;;;;;5036043;28;21058;-61
2022/08/25 07:52:30;;;;;;;4.78;3.28;;;26.40;58.10;;;;;;5011069;28;20779;-63
2022/08/25 07:54:55;;;;;;;4.55;3.45;;;26.30;57.30;;;;;;5029051;28;20063;-59
2022/08/25 07:57:23;;;;;;;4.50;3.22;;;26.40;57.50;;;;;;5014059;28;20095;-59
2022/08/25 07:59:49;;;;;;;5.05;3.50;;;26.40;57.10;;;;;;5016397;28;20250;-61
2022/08/25 08:02:14;;;;;;;3.75;3.13;;;26.30;56.90;;;;;;5024520;28;23003;-61
2022/08/25 08:04:41;;;;;;;3.92;3.25;;;26.30;56.70;;;;;;5034419;28;20079;-60
2022/08/25 08:07:07;;;;;;;3.60;3.05;;;26.30;56.70;;;;;;5032675;28;20037;-61
2022/08/25 08:09:33;;;;;;;3.42;3.10;;;26.40;56.90;;;;;;5029722;28;20029;-59
2022/08/25 08:11:59;;;;;;;3.20;2.60;;;26.40;56.90;;;;;;5029677;28;20025;-61
2022/08/25 08:14:25;;;;;;;4.15;2.92;;;26.40;57.10;;;;;;5031223;28;20067;-61
2022/08/25 08:16:50;;;;;;;4.57;3.58;;;26.40;57.20;;;;;;5028869;28;20451;-59
2022/08/25 08:19:16;;;;;;;3.78;3.17;;;26.40;57.00;;;;;;5029767;28;20037;-57
2022/08/25 08:21:42;;;;;;;5.55;2.75;;;26.40;57.20;;;;;;5032525;28;20025;-60
2022/08/25 08:24:08;;;;;;;4.20;2.97;;;26.40;57.20;;;;;;5037763;28;20036;-62
2022/08/25 08:26:34;;;;;;;3.83;3.10;;;26.40;57.10;;;;;;5039325;28;20056;-61
2022/08/25 08:29:00;;;;;;;3.88;3.10;;;26.50;57.10;;;;;;5027243;28;20033;-61
2022/08/25 08:31:27;;;;;;;5.47;3.20;;;26.50;57.10;;;;;;5032230;28;20746;-62
2022/08/25 08:33:54;;;;;;;3.35;2.90;;;26.50;57.10;;;;;;5033043;28;20072;-60
2022/08/25 08:36:20;;;;;;;3.92;3.00;;;26.50;57.10;;;;;;5021045;28;20543;-58
2022/08/25 08:38:47;;;;;;;6.50;3.38;;;26.50;57.10;;;;;;5017573;28;20425;-60
2022/08/25 08:44:36;;;;;;;3.40;2.75;;;26.50;57.10;;;;;;5024272;28;20086;-61
2022/08/25 08:47:13;;;;;;;4.15;3.08;;;26.50;57.10;;;;;;5024952;28;20041;-61
2022/08/25 08:49:55;;;;;;;4.00;2.95;;;26.50;57.20;;;;;;5024285;28;20663;-61
2022/08/25 08:52:30;;;;;;;3.40;2.95;;;26.50;57.30;;;;;;5021862;28;20056;-62
2022/08/25 08:55:03;;;;;;;6.20;3.53;;;26.50;57.40;;;;;;5020256;28;20505;-59
2022/08/25 08:57:33;;;;;;;5.22;3.70;;;26.50;57.30;;;;;;5024857;28;20116;-60
2022/08/25 09:00:01;;;;;;;5.03;3.90;;;26.50;57.80;;;;;;5027113;28;20124;-60
2022/08/25 09:02:26;;;;;;;5.78;3.53;;;26.50;57.00;;;;;;5026733;28;20079;-60
2022/08/25 09:05:01;;;;;;;4.75;3.55;;;26.50;56.90;;;;;;5029510;28;20025;-59
2022/08/25 09:07:47;;;;;;;4.10;3.22;;;26.50;56.80;;;;;;5032856;28;20758;-60
2022/08/25 09:10:14;;;;;;;3.40;2.97;;;26.40;56.50;;;;;;5030285;28;20092;-61
2022/08/25 09:12:57;;;;;;;4.63;3.03;;;26.40;56.40;;;;;;5025318;28;20400;-61
2022/08/25 09:18:52;;;;;;;3.90;3.30;;;26.50;56.50;;;;;;5025009;28;20044;-60
2022/08/25 09:21:27;;;;;;;3.95;3.28;;;26.50;56.60;;;;;;5029298;28;20242;-59
2022/08/25 09:24:17;;;;;;;3.33;2.85;;;26.50;56.70;;;;;;5019335;28;20391;-62
2022/08/25 09:26:58;;;;;;;3.80;2.83;;;26.50;56.90;;;;;;5022297;28;20112;-62
2022/08/25 09:29:26;;;;;;;;;;;26.50;56.90;;;;;;5024353;28;20029;-61
2022/08/25 09:31:57;;;;;;;3.75;3.08;;;26.50;57.00;;;;;;5024332;28;19919;-61
2022/08/25 09:34:30;;;;;;;4.22;3.10;;;26.50;57.00;;;;;;5020998;28;20052;-58
2022/08/25 09:36:56;;;;;;;5.57;3.22;;;26.50;56.90;;;;;;5019111;28;20032;-61
2022/08/25 09:39:21;;;;;;;4.30;3.35;;;26.50;57.00;;;;;;5028262;28;20040;-59
2022/08/25 09:41:59;;;;;;;6.30;3.05;;;26.50;56.60;;;;;;5028847;28;20029;-59
2022/08/25 09:44:38;;;;;;;3.33;2.60;;;26.60;56.40;;;;;;5024874;28;20065;-60
2022/08/25 09:47:14;;;;;;;3.10;2.80;;;26.60;56.30;;;;;;5026750;28;20128;-62
2022/08/25 09:49:46;;;;;;;5.03;2.90;;;26.60;56.30;;;;;;5025206;28;20036;-61
2022/08/25 09:52:27;;;;;;;3.65;3.00;;;26.70;56.30;;;;;;5030690;28;20171;-60
2022/08/25 09:55:14;;;;;;;7.22;2.88;;;26.70;56.40;;;;;;5023196;28;20033;-60
2022/08/25 09:57:45;;;;;;;4.20;2.90;;;26.70;56.40;;;;;;5021922;28;20040;-61
2022/08/25 10:00:32;;;;;;;4.03;2.70;;;26.70;56.00;;;;;;5022120;28;20025;-60
2022/08/25 10:03:17;;;;;;;3.22;2.72;;;26.80;56.00;;;;;;5026079;28;20088;-59
2022/08/25 10:06:01;;;;;;;4.32;2.95;;;26.80;56.20;;;;;;5020697;28;20974;-60
2022/08/25 10:08:35;;;;;;;3.75;2.83;;;26.80;56.10;;;;;;5030445;28;20036;-58
2022/08/25 10:11:07;;;;;;;5.50;2.83;;;26.80;56.00;;;;;;5022156;28;20160;-59
2022/08/25 10:13:46;;;;;;;3.53;2.85;;;26.80;56.00;;;;;;5014625;28;20084;-63
2022/08/25 10:16:22;;;;;;;3.55;2.60;;;26.80;55.90;;;;;;5025180;28;20071;-61
2022/08/25 10:19:04;;;;;;;3.08;2.70;;;26.80;56.10;;;;;;5032875;28;20059;-61
2022/08/25 10:21:30;;;;;;;4.47;3.08;;;26.80;55.70;;;;;;5015830;28;20124;-60
2022/08/25 10:23:56;;;;;;;4.55;3.00;;;26.90;55.50;;;;;;5025770;28;20085;-61
2022/08/25 10:26:42;;;;;;;4.25;2.95;;;26.80;55.30;;;;;;5019346;28;22683;-61
2022/08/25 10:29:20;;;;;;;3.17;2.70;;;26.90;55.20;;;;;;5023740;28;20971;-60
2022/08/25 10:32:03;;;;;;;3.63;2.60;;;26.90;55.20;;;;;;5023797;28;20106;-59
2022/08/25 10:34:51;;;;;;;3.20;2.45;;;26.90;55.00;;;;;;5018213;28;20056;-60
2022/08/25 10:37:38;;;;;;;4.85;2.80;;;26.90;54.90;;;;;;5018889;28;20620;-62
2022/08/25 10:40:22;;;;;;;3.92;2.47;;;27.00;54.80;;;;;;5023473;28;20122;-59
2022/08/25 10:43:09;;;;;;;2.97;2.10;;;27.10;54.60;;;;;;5025863;28;20033;-60
2022/08/25 10:46:36;;;;;;;3.67;2.67;;;27.10;54.20;;;;;;5026626;28;20032;-60
2022/08/25 10:49:25;;;;;;;2.47;2.10;;;27.20;53.70;;;;;;4944843;28;20045;-61
2022/08/25 10:52:00;;;;;;;2.67;2.20;;;27.30;53.60;;;;;;5017017;28;20099;-60
2022/08/25 10:54:55;;;;;;;3.45;2.20;;;27.30;53.60;;;;;;5027112;28;20033;-62
2022/08/25 10:57:22;;;;;;;3.42;2.25;;;27.40;52.80;;;;;;5027273;28;20037;-60
2022/08/25 11:00:17;;;;;;;2.22;2.05;;;27.50;52.80;;;;;;5015711;28;20119;-59
2022/08/25 11:03:12;;;;;;;2.30;2.10;;;27.60;52.60;;;;;;5020181;28;20519;-64
2022/08/25 11:05:50;;;;;;;3.08;2.20;;;27.60;52.20;;;;;;5011560;28;20116;-60
2022/08/25 11:08:36;;;;;;;2.40;2.13;;;27.70;52.20;;;;;;5024682;28;20590;-61
2022/08/25 11:11:09;;;;;;;2.50;2.10;;;27.70;52.00;;;;;;5013349;28;20025;-59
2022/08/25 11:13:43;;;;;;;4.45;2.10;;;27.70;52.10;;;;;;5014203;28;20543;-60
2022/08/25 11:16:15;;;;;;;2.13;1.92;;;27.70;52.30;;;;;;5021864;28;20067;-60
2022/08/25 11:18:56;;;;;;;2.00;1.80;;;27.70;52.30;;;;;;5014497;28;20043;-61
2022/08/25 11:21:40;;;;;;;;;;;27.70;52.30;;;;;;5001864;28;20064;-61
2022/08/25 11:24:21;;;;;;;3.20;2.08;;;27.70;52.00;;;;;;5017609;28;20201;-61
2022/08/25 11:26:55;;;;;;;3.10;2.05;;;27.70;52.10;;;;;;5026808;28;20572;-61
2022/08/25 11:29:24;;;;;;;3.03;2.38;;;27.70;51.90;;;;;;5021732;28;20029;-60
2022/08/25 11:31:52;;;;;;;4.93;2.17;;;27.80;51.50;;;;;;5024718;28;20025;-61
2022/08/25 11:34:18;;;;;;;2.30;2.10;;;27.70;51.20;;;;;;5027173;28;20513;-59
2022/08/25 11:36:55;;;;;;;2.08;1.85;;;27.80;51.10;;;;;;5025483;28;20806;-60
2022/08/25 11:39:41;;;;;;;2.80;2.10;;;27.80;51.10;;;;;;5030313;28;20493;-62
2022/08/25 11:42:27;;;;;;;2.42;2.15;;;27.80;50.90;;;;;;5020412;28;20424;-59
2022/08/25 11:45:00;;;;;;;2.00;1.80;;;27.80;50.80;;;;;;5021838;28;20488;-61
2022/08/25 11:47:36;;;;;;;2.45;2.25;;;27.90;50.90;;;;;;5017581;28;20042;-59
2022/08/25 11:50:22;;;;;;;3.58;2.20;;;27.90;50.40;;;;;;5020471;28;20037;-58
2022/08/25 11:52:52;;;;;;;2.40;1.98;;;27.80;50.20;;;;;;5018360;28;20032;-60
2022/08/25 11:55:33;;;;;;;2.22;2.03;;;27.90;50.20;;;;;;5024237;28;20029;-61
2022/08/25 11:58:20;;;;;;;;;;;27.90;50.30;;;;;;5026639;28;20037;-59
2022/08/25 12:00:45;;;;;;;1.40;1.30;;;27.90;50.10;;;;;;5024820;28;19913;-60
2022/08/25 12:03:36;;;;;;;1.75;1.60;;;27.90;50.50;;;;;;5027937;28;20024;-59
2022/08/25 12:06:13;;;;;;;2.60;1.85;;;27.90;50.10;;;;;;5025099;28;20040;-59
2022/08/25 12:09:04;;;;;;;2.10;1.90;;;27.90;50.10;;;;;;5024316;28;20406;-60
2022/08/25 12:11:48;;;;;;;1.58;1.48;;;27.80;49.90;;;;;;5013895;28;20492;-62
2022/08/25 12:14:20;;;;;;;2.55;1.65;;;27.80;50.10;;;;;;5023891;28;20090;-62
2022/08/25 12:16:55;;;;;;;1.75;1.65;;;27.80;50.10;;;;;;5028318;28;20094;-59
2022/08/25 12:19:33;;;;;;;3.20;2.10;;;27.80;49.90;;;;;;5023057;28;20358;-63
2022/08/25 12:22:01;;;;;;;1.83;1.63;;;27.80;49.90;;;;;;5030889;28;20044;-62
2022/08/25 12:24:54;;;;;;;2.05;1.85;;;27.80;49.70;;;;;;5030803;28;20041;-62
2022/08/25 12:27:51;;;;;;;2.50;1.95;;;27.80;49.70;;;;;;5025668;28;20028;-61
2022/08/25 12:30:19;;;;;;;2.40;1.90;;;27.80;49.80;;;;;;5014224;28;20048;-62
2022/08/25 12:33:08;;;;;;;2.17;1.67;;;27.80;49.70;;;;;;5029367;28;20021;-63
2022/08/25 12:35:57;;;;;;;2.00;1.80;;;27.80;49.50;;;;;;5032478;28;20045;-60
2022/08/25 12:38:44;;;;;;;1.45;1.35;;;27.80;49.50;;;;;;5024054;28;20037;-60
2022/08/25 12:41:13;;;;;;;1.70;1.48;;;27.80;49.10;;;;;;5029975;28;20029;-63
2022/08/25 12:43:42;;;;;;;1.90;1.70;;;27.80;49.30;;;;;;5024728;28;21888;-62
2022/08/25 12:46:30;;;;;;;2.60;1.45;;;27.80;49.20;;;;;;5020803;28;20089;-60
2022/08/25 12:48:57;;;;;;;1.48;1.38;;;27.90;49.20;;;;;;5027389;28;20041;-61
2022/08/25 12:51:38;;;;;;;2.20;1.85;;;27.80;49.40;;;;;;5026763;28;20114;-58
2022/08/25 12:54:14;;;;;;;;;;;27.80;49.80;;;;;;5025142;28;20033;-60
2022/08/25 12:56:44;;;;;;;1.40;1.30;;;27.80;49.90;;;;;;5028658;28;19952;-60
2022/08/25 12:59:16;;;;;;;2.90;1.85;;;27.80;50.10;;;;;;5030003;28;20025;-59
2022/08/25 13:02:04;;;;;;;1.58;1.48;;;27.70;50.10;;;;;;5023704;28;20040;-60
2022/08/25 13:05:09;;;;;;;1.60;1.40;;;27.70;50.10;;;;;;5028578;28;20040;-60
2022/08/25 13:07:58;;;;;;;2.00;1.33;;;27.70;50.40;;;;;;5024825;28;20064;-61
2022/08/25 13:11:12;;;;;;;2.00;1.52;;;27.60;50.60;;;;;;4982316;28;20144;-62
2022/08/25 13:14:20;;;;;;;1.55;1.45;;;27.60;50.80;;;;;;4975983;28;20041;-61
2022/08/25 13:16:58;;;;;;;1.48;1.25;;;27.60;50.80;;;;;;5020551;28;20045;-60
2022/08/25 13:19:26;;;;;;;1.88;1.40;;;27.50;50.80;;;;;;5016250;28;20033;-62
2022/08/25 13:21:53;;;;;;;1.50;1.30;;;27.50;50.90;;;;;;5017548;28;20038;-60
2022/08/25 13:24:28;;;;;;;1.98;1.70;;;27.50;50.90;;;;;;5018790;28;20021;-61